createdAt,value
2023-09-02T00:01:46.867Z,2.45
2023-09-02T00:04:15.159Z,2.20
2023-09-02T00:06:43.037Z,2.20
2023-09-02T00:09:11.066Z,1.80
2023-09-02T00:11:39.125Z,1.92
2023-09-02T00:14:07.848Z,2.30
2023-09-02T00:16:35.670Z,2.47
2023-09-02T00:19:05.422Z,2.13
2023-09-02T00:21:34.056Z,2.20
2023-09-02T00:24:06.565Z,1.50
2023-09-02T00:26:34.828Z,1.80
2023-09-02T00:29:03.369Z,1.83
2023-09-02T00:31:31.480Z,2.03
2023-09-02T00:33:59.502Z,1.73
2023-09-02T00:36:31.892Z,1.90
2023-09-02T00:39:00.373Z,2.05
2023-09-02T00:41:33.762Z,2.20
2023-09-02T00:44:02.309Z,1.75
2023-09-02T00:46:30.450Z,2.63
2023-09-02T00:48:58.355Z,2.50
2023-09-02T00:51:28.960Z,2.28
2023-09-02T00:53:56.912Z,2.67
2023-09-02T00:56:26.246Z,2.67
2023-09-02T00:58:57.912Z,2.60
2023-09-02T01:01:26.746Z,2.30
2023-09-02T01:03:54.892Z,2.40
2023-09-02T01:06:24.030Z,2.50
2023-09-02T01:08:53.719Z,3.05
2023-09-02T01:11:21.614Z,2.70
2023-09-02T01:13:49.870Z,2.55
2023-09-02T01:16:18.000Z,3.00
2023-09-02T01:18:47.641Z,2.88
2023-09-02T01:21:34.173Z,2.65
2023-09-02T01:24:31.312Z,2.30
2023-09-02T01:27:13.874Z,2.30
2023-09-02T01:29:49.940Z,2.47
2023-09-02T01:32:19.872Z,2.60
2023-09-02T01:34:49.595Z,2.97
2023-09-02T01:37:19.637Z,2.30
2023-09-02T01:39:49.997Z,3.13
2023-09-02T01:42:19.903Z,2.90
2023-09-02T01:44:49.262Z,3.00
2023-09-02T01:47:17.456Z,2.30
2023-09-02T01:49:47.815Z,2.58
2023-09-02T01:52:17.520Z,2.75
2023-09-02T01:54:46.333Z,1.85
2023-09-02T01:57:14.941Z,2.53
2023-09-02T01:59:44.229Z,2.92
2023-09-02T02:02:12.127Z,2.38
2023-09-02T02:04:44.620Z,3.53
2023-09-02T02:07:16.323Z,3.60
2023-09-02T02:09:54.327Z,2.70
2023-09-02T02:12:23.652Z,3.10
2023-09-02T02:14:53.056Z,2.30
2023-09-02T02:17:20.936Z,3.38
2023-09-02T02:19:48.901Z,2.55
2023-09-02T02:22:17.413Z,2.65
2023-09-02T02:24:45.437Z,2.75
2023-09-02T02:27:14.648Z,3.13
2023-09-02T02:29:42.861Z,3.92
2023-09-02T02:32:12.123Z,3.47
2023-09-02T02:34:40.022Z,2.80
2023-09-02T02:37:07.995Z,3.38
2023-09-02T02:39:35.841Z,2.70
2023-09-02T02:42:03.922Z,3.17
2023-09-02T02:44:31.966Z,2.70
2023-09-02T02:46:59.849Z,3.25
2023-09-02T02:49:29.098Z,3.17
2023-09-02T02:51:57.931Z,3.05
2023-09-02T02:54:25.791Z,3.17
2023-09-02T02:56:53.660Z,3.55
2023-09-02T02:59:22.065Z,2.70
2023-09-02T03:01:52.118Z,3.70
2023-09-02T03:04:20.106Z,2.58
2023-09-02T03:06:49.227Z,2.88
2023-09-02T03:09:17.282Z,3.65
2023-09-02T03:11:45.289Z,3.00
2023-09-02T03:14:13.227Z,3.47
2023-09-02T03:16:41.209Z,3.03
2023-09-02T03:19:09.055Z,2.75
2023-09-02T03:21:36.992Z,2.83
2023-09-02T03:24:06.897Z,3.20
2023-09-02T03:26:34.744Z,2.92
2023-09-02T03:29:02.724Z,3.60
2023-09-02T03:31:30.748Z,2.95
2023-09-02T03:33:58.799Z,3.13
2023-09-02T03:36:26.780Z,3.42
2023-09-02T03:38:54.744Z,2.95
2023-09-02T03:41:24.653Z,3.08
2023-09-02T03:43:52.720Z,2.63
2023-09-02T03:46:22.112Z,3.63
2023-09-02T03:48:49.663Z,3.20
2023-09-02T03:51:18.168Z,2.92
2023-09-02T03:53:46.357Z,2.60
2023-09-02T03:56:14.631Z,3.38
2023-09-02T03:58:43.939Z,3.15
2023-09-02T04:01:13.159Z,3.80
2023-09-02T04:03:41.283Z,3.25
2023-09-02T04:06:09.310Z,4.32
2023-09-02T04:08:37.763Z,3.55
2023-09-02T04:11:05.675Z,3.60
2023-09-02T04:13:33.675Z,3.30
2023-09-02T04:16:03.720Z,4.30
2023-09-02T04:18:32.549Z,3.85
2023-09-02T04:21:03.480Z,3.88
2023-09-02T04:23:31.911Z,3.20
2023-09-02T04:26:00.319Z,3.15
2023-09-02T04:28:28.266Z,3.28
2023-09-02T04:30:56.953Z,3.42
2023-09-02T04:33:26.424Z,3.53
2023-09-02T04:35:54.695Z,4.10
2023-09-02T04:38:22.648Z,3.90
2023-09-02T04:40:50.524Z,3.55
2023-09-02T04:43:19.453Z,3.10
2023-09-02T04:45:47.578Z,2.25
2023-09-02T04:48:15.731Z,2.45
2023-09-02T04:50:44.997Z,2.28
2023-09-02T04:53:12.886Z,1.60
2023-09-02T04:55:41.361Z,1.83
2023-09-02T04:58:09.628Z,1.95
2023-09-02T05:00:38.645Z,2.03
2023-09-02T05:03:07.484Z,2.40
2023-09-02T05:05:35.989Z,1.52
2023-09-02T05:08:05.895Z,2.00
2023-09-02T05:10:33.813Z,2.08
2023-09-02T05:13:01.752Z,2.03
2023-09-02T05:15:29.824Z,2.20
2023-09-02T05:17:58.948Z,1.63
2023-09-02T05:20:27.154Z,2.28
2023-09-02T05:22:55.321Z,1.67
2023-09-02T05:25:24.751Z,1.73
2023-09-02T05:27:52.665Z,2.00
2023-09-02T05:30:20.493Z,2.25
2023-09-02T05:32:48.563Z,2.13
2023-09-02T05:35:16.939Z,1.90
2023-09-02T05:37:45.011Z,1.65
2023-09-02T05:40:13.468Z,1.75
2023-09-02T05:42:43.210Z,1.73
2023-09-02T05:45:11.528Z,2.30
2023-09-02T05:47:39.509Z,1.83
2023-09-02T05:50:08.323Z,1.70
2023-09-02T05:52:36.248Z,1.95
2023-09-02T05:55:04.436Z,2.30
2023-09-02T05:57:33.372Z,1.98
2023-09-02T06:00:04.472Z,2.40
2023-09-02T06:02:34.523Z,2.20
2023-09-02T06:05:03.071Z,2.05
2023-09-02T06:07:31.022Z,1.77
2023-09-02T06:09:58.924Z,1.67
2023-09-02T06:12:27.007Z,1.80
2023-09-02T06:14:57.626Z,1.95
2023-09-02T06:17:31.708Z,2.40
2023-09-02T06:20:00.311Z,1.85
2023-09-02T06:22:28.471Z,1.73
2023-09-02T06:24:56.651Z,2.55
2023-09-02T06:27:24.619Z,2.20
2023-09-02T06:29:52.538Z,1.58
2023-09-02T06:32:22.074Z,2.42
2023-09-02T06:34:54.657Z,2.53
2023-09-02T06:37:22.978Z,2.35
2023-09-02T06:39:54.187Z,2.53
2023-09-02T06:42:22.186Z,2.13
2023-09-02T06:44:54.815Z,1.90
2023-09-02T06:47:22.989Z,2.30
2023-09-02T06:49:52.761Z,2.60
2023-09-02T06:52:20.659Z,2.47
2023-09-02T06:54:50.205Z,2.90
2023-09-02T06:57:18.082Z,2.70
2023-09-02T06:59:45.890Z,2.50
2023-09-02T07:02:13.833Z,2.22
2023-09-02T07:04:41.808Z,2.60
2023-09-02T07:07:11.083Z,3.58
2023-09-02T07:09:39.031Z,3.17
2023-09-02T07:12:07.435Z,2.75
2023-09-02T07:14:35.376Z,3.20
2023-09-02T07:17:03.235Z,2.40
2023-09-02T07:19:31.034Z,3.55
2023-09-02T07:21:59.032Z,3.38
2023-09-02T07:24:29.978Z,2.75
2023-09-02T07:26:57.974Z,2.88
2023-09-02T07:29:25.987Z,3.28
2023-09-02T07:31:53.841Z,3.53
2023-09-02T07:34:21.785Z,4.10
2023-09-02T07:36:49.667Z,3.30
2023-09-02T07:39:17.929Z,3.15
2023-09-02T07:41:47.716Z,3.35
2023-09-02T07:44:16.203Z,3.72
2023-09-02T07:46:44.194Z,3.10
2023-09-02T07:49:12.004Z,3.45
2023-09-02T07:51:40.128Z,3.55
2023-09-02T07:54:08.025Z,3.97
2023-09-02T07:56:35.917Z,3.22
2023-09-02T07:59:06.719Z,3.13
2023-09-02T08:01:34.980Z,3.25
2023-09-02T08:04:05.237Z,3.60
2023-09-02T08:06:33.434Z,3.00
2023-09-02T08:09:01.270Z,3.10
2023-09-02T08:11:29.379Z,3.92
2023-09-02T08:13:57.268Z,3.03
2023-09-02T08:16:26.558Z,3.00
2023-09-02T08:18:54.380Z,3.35
2023-09-02T08:21:22.370Z,3.30
2023-09-02T08:23:50.333Z,3.00
2023-09-02T08:26:18.169Z,3.17
2023-09-02T08:28:46.747Z,3.30
2023-09-02T08:31:17.965Z,2.95
2023-09-02T08:33:47.248Z,3.33
2023-09-02T08:36:18.492Z,3.53
2023-09-02T08:38:46.579Z,3.70
2023-09-02T08:41:24.378Z,4.30
2023-09-02T08:43:55.165Z,3.42
2023-09-02T08:46:26.278Z,2.95
2023-09-02T08:48:57.833Z,2.83
2023-09-02T08:51:27.252Z,6.97
2023-09-02T08:53:57.113Z,5.07
2023-09-02T08:56:25.708Z,3.08
2023-09-02T08:58:55.462Z,3.28
2023-09-02T09:01:25.267Z,2.72
2023-09-02T09:03:57.210Z,2.63
2023-09-02T09:06:26.489Z,2.85
2023-09-02T09:08:58.229Z,2.20
2023-09-02T09:11:29.010Z,2.70
2023-09-02T09:14:00.401Z,2.78
2023-09-02T09:16:32.607Z,2.50
2023-09-02T09:19:05.291Z,2.50
2023-09-02T09:21:33.244Z,2.60
2023-09-02T09:24:01.203Z,2.03
2023-09-02T09:26:30.149Z,1.90
2023-09-02T09:28:59.559Z,2.55
2023-09-02T09:31:29.478Z,2.03
2023-09-02T09:33:59.929Z,2.30
2023-09-02T09:36:31.160Z,2.10
2023-09-02T09:39:00.562Z,2.30
2023-09-02T09:41:29.762Z,2.83
2023-09-02T09:44:05.853Z,2.38
2023-09-02T09:46:35.339Z,1.50
2023-09-02T09:49:03.535Z,1.73
2023-09-02T09:51:32.816Z,1.80
2023-09-02T09:54:00.839Z,1.23
2023-09-02T09:56:28.917Z,1.02
2023-09-02T09:58:57.412Z,1.48
2023-09-02T10:01:26.812Z,1.52
2023-09-02T10:03:56.342Z,1.30
2023-09-02T10:06:24.310Z,0.93
2023-09-02T10:08:55.102Z,1.73
2023-09-02T10:11:24.622Z,1.60
2023-09-02T10:13:53.934Z,2.38
2023-09-02T10:16:23.655Z,1.75
2023-09-02T10:18:51.937Z,1.80
2023-09-02T10:21:20.510Z,1.63
2023-09-02T10:23:56.516Z,1.65
2023-09-02T10:26:34.073Z,1.38
2023-09-02T10:29:02.418Z,1.02
2023-09-02T10:31:34.379Z,1.05
2023-09-02T10:34:08.982Z,1.67
2023-09-02T10:36:41.691Z,1.50
2023-09-02T10:39:15.133Z,1.70
2023-09-02T10:41:47.873Z,1.58
2023-09-02T10:44:18.164Z,1.80
2023-09-02T10:46:47.366Z,1.52
2023-09-02T10:49:15.242Z,1.25
2023-09-02T10:51:44.312Z,1.52
2023-09-02T10:54:11.142Z,1.50
2023-09-02T10:56:39.013Z,1.00
2023-09-02T10:59:09.655Z,1.55
2023-09-02T11:01:45.611Z,1.50
2023-09-02T11:04:13.738Z,1.42
2023-09-02T11:07:15.032Z,1.40
2023-09-02T11:09:53.253Z,1.13
2023-09-02T11:12:21.148Z,0.98
2023-09-02T11:15:19.747Z,0.75
2023-09-02T11:17:47.898Z,0.95
2023-09-02T11:20:20.171Z,0.88
2023-09-02T11:23:00.775Z,0.82
2023-09-02T11:25:39.703Z,0.80
2023-09-02T11:28:08.738Z,0.80
2023-09-02T11:30:39.879Z,0.47
2023-09-02T11:33:08.734Z,0.65
2023-09-02T11:35:37.884Z,1.25
2023-09-02T11:38:18.732Z,1.02
2023-09-02T11:40:46.512Z,1.10
2023-09-02T11:43:20.172Z,1.00
2023-09-02T11:45:50.304Z,0.93
2023-09-02T11:48:18.237Z,2.17
2023-09-02T11:50:46.226Z,3.13
2023-09-02T11:53:14.096Z,1.77
2023-09-02T11:55:42.089Z,2.40
2023-09-02T11:58:11.535Z,1.35
2023-09-02T12:00:44.199Z,1.05
2023-09-02T12:03:16.172Z,1.40
2023-09-02T12:05:51.392Z,1.45
2023-09-02T12:08:19.702Z,1.13
2023-09-02T12:10:48.752Z,0.93
2023-09-02T12:13:17.890Z,1.02
2023-09-02T12:15:49.937Z,1.00
2023-09-02T12:18:19.768Z,1.27
2023-09-02T12:20:48.229Z,1.13
2023-09-02T12:23:17.156Z,1.38
2023-09-02T12:26:04.417Z,1.23
2023-09-02T12:28:32.434Z,1.20
2023-09-02T12:31:00.310Z,1.52
2023-09-02T12:33:29.882Z,1.25
2023-09-02T12:35:57.874Z,1.00
2023-09-02T12:38:25.664Z,1.35
2023-09-02T12:40:54.140Z,1.17
2023-09-02T12:43:27.881Z,1.27
2023-09-02T12:45:56.350Z,1.23
2023-09-02T12:48:24.542Z,1.08
2023-09-02T12:50:53.791Z,1.45
2023-09-02T12:53:23.990Z,0.90
2023-09-02T12:55:53.020Z,1.20
2023-09-02T12:58:21.064Z,0.90
2023-09-02T13:00:48.943Z,1.58
2023-09-02T13:03:17.014Z,1.13
2023-09-02T13:05:45.143Z,1.35
2023-09-02T13:08:14.461Z,1.05
2023-09-02T13:10:42.467Z,1.55
2023-09-02T13:13:10.319Z,1.92
2023-09-02T13:15:38.119Z,1.33
2023-09-02T13:18:06.405Z,1.38
2023-09-02T13:20:37.030Z,1.60
2023-09-02T13:23:06.576Z,1.25
2023-09-02T13:25:35.766Z,1.08
2023-09-02T13:28:03.710Z,1.30
2023-09-02T13:30:31.591Z,1.40
2023-09-02T13:33:01.079Z,1.23
2023-09-02T13:35:29.870Z,1.52
2023-09-02T13:38:00.828Z,1.20
2023-09-02T13:40:37.889Z,1.45
2023-09-02T13:43:08.072Z,1.25
2023-09-02T13:45:38.753Z,1.35
2023-09-02T13:48:08.958Z,1.27
2023-09-02T13:50:38.874Z,1.15
2023-09-02T13:53:07.176Z,1.58
2023-09-02T13:55:40.728Z,1.27
2023-09-02T13:58:11.900Z,1.42
2023-09-02T14:00:43.291Z,1.50
2023-09-02T14:03:19.483Z,1.63
2023-09-02T14:05:48.802Z,1.42
2023-09-02T14:08:18.951Z,1.85
2023-09-02T14:10:49.264Z,1.83
2023-09-02T14:13:18.395Z,1.77
2023-09-02T14:15:47.418Z,1.70
2023-09-02T14:18:15.440Z,1.60
2023-09-02T14:20:43.305Z,1.52
2023-09-02T14:23:11.432Z,1.40
2023-09-02T14:25:39.297Z,2.17
2023-09-02T14:28:08.601Z,1.50
2023-09-02T14:30:36.966Z,1.60
2023-09-02T14:33:07.891Z,1.60
2023-09-02T14:35:36.231Z,1.73
2023-09-02T14:38:04.476Z,1.45
2023-09-02T14:40:32.443Z,1.60
2023-09-02T14:43:00.256Z,1.58
2023-09-02T14:45:32.060Z,1.88
2023-09-02T14:48:00.044Z,1.70
2023-09-02T14:50:28.628Z,2.45
2023-09-02T14:52:56.756Z,2.72
2023-09-02T14:55:24.770Z,2.50
2023-09-02T14:57:53.952Z,2.33
2023-09-02T15:00:21.946Z,2.38
2023-09-02T15:02:51.314Z,2.45
2023-09-02T15:05:20.699Z,3.17
2023-09-02T15:07:48.742Z,2.80
2023-09-02T15:10:24.785Z,2.30
2023-09-02T15:12:53.161Z,1.85
2023-09-02T15:15:25.119Z,2.63
2023-09-02T15:17:55.911Z,2.50
2023-09-02T15:20:27.001Z,2.35
2023-09-02T15:22:57.544Z,2.22
2023-09-02T15:25:27.198Z,2.58
2023-09-02T15:27:56.292Z,2.53
2023-09-02T15:30:29.879Z,2.60
2023-09-02T15:33:02.213Z,2.70
2023-09-02T15:35:31.575Z,2.75
2023-09-02T15:38:01.157Z,2.67
2023-09-02T15:40:31.655Z,2.70
2023-09-02T15:43:01.135Z,2.85
2023-09-02T15:45:29.888Z,3.63
2023-09-02T15:48:01.874Z,3.65
2023-09-02T15:50:31.356Z,4.10
2023-09-02T15:52:59.526Z,4.68
2023-09-02T15:55:27.777Z,3.10
2023-09-02T15:57:57.552Z,3.50
2023-09-02T16:00:25.896Z,3.55
2023-09-02T16:02:54.102Z,3.22
2023-09-02T16:05:23.439Z,3.85
2023-09-02T16:07:52.097Z,2.35
2023-09-02T16:10:20.568Z,2.97
2023-09-02T16:12:48.920Z,2.92
2023-09-02T16:15:17.893Z,2.40
2023-09-02T16:17:46.508Z,3.00
2023-09-02T16:20:14.974Z,2.80
2023-09-02T16:22:44.322Z,2.30
2023-09-02T16:25:13.306Z,3.17
2023-09-02T16:27:41.650Z,3.30
2023-09-02T16:30:19.497Z,3.45
2023-09-02T16:32:47.637Z,3.00
2023-09-02T16:35:19.098Z,2.97
2023-09-02T16:37:49.031Z,2.83
2023-09-02T16:40:17.039Z,3.05
2023-09-02T16:42:46.207Z,2.60
2023-09-02T16:45:15.740Z,3.10
2023-09-02T16:47:46.576Z,2.47
2023-09-02T16:50:15.589Z,2.78
2023-09-02T16:52:45.229Z,2.90
2023-09-02T16:55:17.926Z,2.92
2023-09-02T16:57:48.124Z,2.80
2023-09-02T17:00:18.066Z,2.17
2023-09-02T17:02:47.788Z,2.80
2023-09-02T17:05:18.284Z,2.60
2023-09-02T17:07:47.695Z,2.60
2023-09-02T17:10:21.600Z,2.60
2023-09-02T17:12:52.452Z,2.63
2023-09-02T17:15:23.124Z,3.08
2023-09-02T17:17:55.592Z,2.53
2023-09-02T17:20:35.825Z,2.83
2023-09-02T17:23:08.937Z,2.30
2023-09-02T17:25:39.041Z,2.78
2023-09-02T17:28:09.215Z,2.80
2023-09-02T17:30:39.053Z,2.13
2023-09-02T17:33:07.143Z,2.50
2023-09-02T17:35:50.417Z,2.38
2023-09-02T17:38:20.473Z,2.33
2023-09-02T17:40:50.995Z,2.55
2023-09-02T17:43:19.062Z,2.50
2023-09-02T17:45:47.263Z,2.47
2023-09-02T17:48:15.610Z,1.88
2023-09-02T17:50:46.992Z,2.35
2023-09-02T17:53:14.998Z,2.65
2023-09-02T17:55:43.266Z,2.67
2023-09-02T17:58:13.278Z,2.60
2023-09-02T18:00:41.578Z,2.47
2023-09-02T18:03:09.669Z,2.38
2023-09-02T18:05:37.640Z,2.45
2023-09-02T18:08:06.266Z,2.53
2023-09-02T18:10:34.493Z,2.80
2023-09-02T18:13:02.326Z,2.70
2023-09-02T18:15:35.102Z,3.05
2023-09-02T18:18:03.463Z,2.53
2023-09-02T18:20:31.553Z,2.50
2023-09-02T18:22:59.729Z,3.38
2023-09-02T18:25:27.578Z,2.40
2023-09-02T18:27:55.558Z,3.10
2023-09-02T18:30:23.824Z,3.25
2023-09-02T18:32:53.385Z,2.75
2023-09-02T18:35:23.603Z,2.50
2023-09-02T18:37:51.508Z,3.22
2023-09-02T18:40:19.469Z,3.45
2023-09-02T18:42:47.613Z,3.10
2023-09-02T18:45:17.398Z,3.03
2023-09-02T18:47:45.487Z,3.03
2023-09-02T18:50:15.101Z,4.90
2023-09-02T18:52:43.264Z,2.90
2023-09-02T18:55:20.138Z,3.42
2023-09-02T18:57:48.596Z,2.55
2023-09-02T19:00:17.108Z,2.60
2023-09-02T19:02:44.997Z,3.40
2023-09-02T19:05:14.415Z,3.63
2023-09-02T19:07:42.580Z,2.75
2023-09-02T19:10:11.717Z,2.83
2023-09-02T19:12:39.737Z,3.55
2023-09-02T19:15:08.397Z,3.08
2023-09-02T19:17:37.551Z,3.17
2023-09-02T19:20:08.155Z,2.45
2023-09-02T19:22:40.518Z,2.55
2023-09-02T19:25:13.321Z,3.10
2023-09-02T19:27:41.750Z,3.58
2023-09-02T19:30:10.208Z,2.90
2023-09-02T19:32:38.105Z,3.13
2023-09-02T19:35:10.844Z,3.60
2023-09-02T19:37:47.318Z,3.42
2023-09-02T19:40:18.109Z,3.17
2023-09-02T19:42:49.933Z,4.55
2023-09-02T19:45:18.403Z,3.72
2023-09-02T19:47:46.476Z,4.32
2023-09-02T19:50:17.750Z,3.67
2023-09-02T19:52:47.149Z,3.65
2023-09-02T19:55:15.424Z,3.83
2023-09-02T19:57:43.797Z,3.53
2023-09-02T20:00:13.169Z,4.93
2023-09-02T20:02:41.229Z,4.40
2023-09-02T20:05:10.996Z,4.88
2023-09-02T20:07:39.084Z,3.97
2023-09-02T20:10:11.714Z,3.60
2023-09-02T20:12:39.979Z,4.80
2023-09-02T20:15:08.423Z,4.28
2023-09-02T20:17:36.496Z,4.03
2023-09-02T20:20:05.178Z,4.05
2023-09-02T20:22:33.608Z,4.45
2023-09-02T20:25:01.650Z,4.30
2023-09-02T20:27:31.012Z,4.35
2023-09-02T20:29:58.912Z,5.70
2023-09-02T20:32:26.801Z,4.35
2023-09-02T20:34:55.766Z,4.65
2023-09-02T20:37:23.625Z,4.40
2023-09-02T20:39:52.147Z,4.07
2023-09-02T20:42:20.016Z,4.03
2023-09-02T20:44:51.233Z,4.60
2023-09-02T20:47:19.779Z,5.05
2023-09-02T20:49:50.834Z,4.03
2023-09-02T20:52:22.034Z,4.75
2023-09-02T20:54:53.626Z,4.28
2023-09-02T20:57:21.639Z,4.88
2023-09-02T20:59:53.286Z,4.00
2023-09-02T21:02:21.713Z,4.25
2023-09-02T21:04:50.660Z,4.88
2023-09-02T21:07:18.635Z,4.28
2023-09-02T21:09:47.808Z,4.80
2023-09-02T21:12:15.835Z,3.75
2023-09-02T21:14:43.776Z,4.90
2023-09-02T21:17:12.932Z,4.35
2023-09-02T21:19:40.854Z,4.50
2023-09-02T21:22:08.890Z,4.50
2023-09-02T21:24:36.683Z,4.68
2023-09-02T21:27:04.788Z,4.68
2023-09-02T21:29:33.308Z,4.15
2023-09-02T21:34:31.167Z,4.20
2023-09-02T21:36:59.011Z,4.55
2023-09-02T21:39:28.505Z,4.53
2023-09-02T21:41:56.364Z,3.60
2023-09-02T21:44:24.211Z,4.82
2023-09-02T21:46:54.287Z,4.80
2023-09-02T21:49:25.113Z,4.03
2023-09-02T21:51:54.603Z,4.38
2023-09-02T21:54:22.387Z,4.28
2023-09-02T21:56:50.212Z,5.75
2023-09-02T21:59:18.366Z,5.68
2023-09-02T22:01:46.270Z,5.53
2023-09-02T22:04:14.085Z,4.57
2023-09-02T22:06:41.890Z,4.75
2023-09-02T22:09:11.046Z,3.90
2023-09-02T22:11:38.888Z,3.80
2023-09-02T22:14:06.882Z,3.78
2023-09-02T22:16:34.691Z,3.50
2023-09-02T22:19:09.579Z,3.78
2023-09-02T22:21:39.500Z,3.17
2023-09-02T22:24:07.831Z,3.30
2023-09-02T22:26:36.938Z,3.95
2023-09-02T22:29:04.864Z,3.58
2023-09-02T22:31:32.695Z,3.58
2023-09-02T22:34:00.496Z,3.72
2023-09-02T22:36:28.390Z,3.75
2023-09-02T22:38:57.381Z,3.88
2023-09-02T22:41:25.445Z,4.05
2023-09-02T22:43:54.662Z,3.33
2023-09-02T22:46:22.557Z,3.30
2023-09-02T22:48:50.721Z,4.13
2023-09-02T22:51:18.999Z,3.92
2023-09-02T22:53:47.304Z,3.50
2023-09-02T22:56:17.358Z,3.65
2023-09-02T22:58:45.599Z,3.75
2023-09-02T23:01:15.039Z,3.75
2023-09-02T23:03:44.444Z,3.45
2023-09-02T23:06:14.170Z,3.80
2023-09-02T23:08:44.583Z,3.80
2023-09-02T23:11:12.467Z,3.35
2023-09-02T23:13:40.506Z,3.42
2023-09-02T23:16:08.508Z,3.13
2023-09-02T23:18:37.814Z,3.38
2023-09-02T23:21:12.618Z,3.50
2023-09-02T23:23:40.786Z,2.75
2023-09-02T23:26:08.695Z,3.08
2023-09-02T23:28:37.359Z,3.00
2023-09-02T23:31:05.591Z,3.45
2023-09-02T23:33:34.456Z,3.60
2023-09-02T23:36:04.970Z,3.53
2023-09-02T23:38:33.740Z,3.90
2023-09-02T23:41:02.596Z,3.60
2023-09-02T23:43:32.191Z,3.45
2023-09-02T23:46:00.918Z,3.95
2023-09-02T23:48:29.303Z,3.72
2023-09-02T23:50:58.986Z,4.35
2023-09-02T23:53:29.170Z,3.92
2023-09-02T23:55:58.199Z,3.40
2023-09-02T23:58:26.079Z,3.38
